Terminal Aerodrome Forecast
Issued by NWS Melbourne, FL

Home | Current Version | Previous Version | Text Only | Print | Product List | Glossary On
Versions: 1 2 3 4 5 6 7 8 9 10 11 12 13 14 15 16 17 18 19
000
FTUS42 KMLB 022332
TAFVRB
TAF
KVRB 022332Z 0300/0324 04007KT P6SM SCT003
      TEMPO 0300/0302 1SM BR BKN003
     FM030200 04005KT 3SM BR OVC003
      TEMPO 0310/0313 1/2SM FG VV002
     FM031400 08008KT P6SM SCT005 SCT020
     FM031700 10010KT P6SM SCT030=

USA.gov is the U.S. government's official web portal to all federal, state and local government web resources and services.